createdAt,value
2016-07-16T00:00:19.877Z,1003.58
2016-07-16T00:01:19.877Z,1003.58
2016-07-16T00:02:19.886Z,1003.57
2016-07-16T00:04:19.890Z,1003.54
2016-07-16T00:05:20.525Z,1003.53
2016-07-16T00:06:19.900Z,1003.5
2016-07-16T00:07:19.898Z,1003.52
2016-07-16T00:08:19.913Z,1003.54
2016-07-16T00:09:20.128Z,1003.53
2016-07-16T00:10:19.918Z,1003.51
2016-07-16T00:11:19.916Z,1003.58
2016-07-16T00:12:20.124Z,1003.59
2016-07-16T00:13:19.926Z,1003.62
2016-07-16T00:14:19.932Z,1003.61
2016-07-16T00:15:19.934Z,1003.58
2016-07-16T00:16:19.938Z,1003.57
2016-07-16T00:17:19.947Z,1003.57
2016-07-16T00:18:19.959Z,1003.55
2016-07-16T00:19:19.957Z,1003.56
2016-07-16T00:20:19.962Z,1003.54
2016-07-16T00:21:19.970Z,1003.53
2016-07-16T00:22:19.967Z,1003.5
2016-07-16T00:23:19.968Z,1003.51
2016-07-16T00:24:19.971Z,1003.5
2016-07-16T00:25:19.990Z,1003.51
2016-07-16T00:26:20.183Z,1003.53
2016-07-16T00:27:19.993Z,1003.5
2016-07-16T00:28:19.990Z,1003.52
2016-07-16T00:29:19.996Z,1003.55
2016-07-16T00:30:20.200Z,1003.54
2016-07-16T00:31:20.207Z,1003.54
2016-07-16T00:32:20.004Z,1003.53
2016-07-16T00:33:20.012Z,1003.52
2016-07-16T00:34:20.029Z,1003.5
2016-07-16T00:35:20.017Z,1003.55
2016-07-16T00:36:20.027Z,1003.57
2016-07-16T00:37:20.036Z,1003.54
2016-07-16T00:38:20.031Z,1003.6
2016-07-16T00:39:20.039Z,1003.6
2016-07-16T00:40:20.316Z,1003.61
2016-07-16T00:41:20.046Z,1003.62
2016-07-16T00:42:20.055Z,1003.63
2016-07-16T00:43:20.050Z,1003.64
2016-07-16T00:44:20.055Z,1003.67
2016-07-16T00:45:20.077Z,1003.7
2016-07-16T00:46:20.065Z,1003.71
2016-07-16T00:47:20.072Z,1003.7
2016-07-16T00:48:20.071Z,1003.73
2016-07-16T00:49:20.078Z,1003.7
2016-07-16T00:50:20.080Z,1003.72
2016-07-16T00:51:20.089Z,1003.7
2016-07-16T00:52:20.090Z,1003.67
2016-07-16T00:53:20.093Z,1003.67
2016-07-16T00:54:20.116Z,1003.68
2016-07-16T00:55:20.103Z,1003.61
2016-07-16T00:56:20.105Z,1003.64
2016-07-16T00:57:20.114Z,1003.58
2016-07-16T00:58:20.336Z,1003.59
2016-07-16T00:59:20.117Z,1003.58
2016-07-16T01:00:20.357Z,1003.56
2016-07-16T01:01:20.133Z,1003.53
2016-07-16T01:02:20.136Z,1003.58
2016-07-16T01:03:20.134Z,1003.61
2016-07-16T01:04:20.139Z,1003.61
2016-07-16T01:05:20.157Z,1003.6
2016-07-16T01:06:20.151Z,1003.58
2016-07-16T01:07:20.154Z,1003.58
2016-07-16T01:08:20.174Z,1003.56
2016-07-16T01:09:20.406Z,1003.6
2016-07-16T01:10:20.166Z,1003.57
2016-07-16T01:11:20.168Z,1003.58
2016-07-16T01:12:20.175Z,1003.56
2016-07-16T01:13:20.179Z,1003.6
2016-07-16T01:14:20.179Z,1003.59
2016-07-16T01:15:20.183Z,1003.61
2016-07-16T01:16:20.189Z,1003.63
2016-07-16T01:17:20.193Z,1003.65
2016-07-16T01:18:20.196Z,1003.68
2016-07-16T01:19:20.202Z,1003.72
2016-07-16T01:20:20.211Z,1003.73
2016-07-16T01:21:20.220Z,1003.75
2016-07-16T01:22:20.213Z,1003.74
2016-07-16T01:23:20.227Z,1003.72
2016-07-16T01:24:20.242Z,1003.76
2016-07-16T01:25:20.248Z,1003.73
2016-07-16T01:26:20.233Z,1003.78
2016-07-16T01:27:20.241Z,1003.74
2016-07-16T01:28:20.237Z,1003.78
2016-07-16T01:29:20.242Z,1003.78
2016-07-16T01:30:20.246Z,1003.81
2016-07-16T01:31:20.247Z,1003.84
2016-07-16T01:32:20.256Z,1003.85
2016-07-16T01:33:20.261Z,1003.88
2016-07-16T01:34:20.266Z,1003.92
2016-07-16T01:35:20.266Z,1003.92
2016-07-16T01:38:20.277Z,1003.9
2016-07-16T01:39:20.285Z,1003.89
2016-07-16T01:40:20.290Z,1003.89
2016-07-16T01:41:20.294Z,1003.84
2016-07-16T01:42:20.293Z,1003.88
2016-07-16T01:43:20.296Z,1003.87
2016-07-16T01:44:20.351Z,1003.87
2016-07-16T01:45:20.303Z,1003.83
2016-07-16T01:46:20.310Z,1003.86
2016-07-16T01:47:20.313Z,1003.88
2016-07-16T01:48:20.517Z,1003.89
2016-07-16T01:49:20.320Z,1003.9
2016-07-16T01:50:20.324Z,1003.89
2016-07-16T01:51:20.327Z,1003.86
2016-07-16T01:52:20.330Z,1003.89
2016-07-16T01:53:20.338Z,1003.89
2016-07-16T01:54:20.341Z,1003.87
2016-07-16T01:55:20.347Z,1003.85
2016-07-16T01:56:20.351Z,1003.91
2016-07-16T01:57:20.358Z,1003.91
2016-07-16T01:58:20.360Z,1003.9
2016-07-16T01:59:20.368Z,1003.93
2016-07-16T02:00:20.374Z,1003.91
2016-07-16T02:01:20.370Z,1003.91
2016-07-16T02:02:20.369Z,1003.95
2016-07-16T02:03:20.376Z,1003.91
2016-07-16T02:04:20.422Z,1003.95
2016-07-16T02:05:20.391Z,1003.92
2016-07-16T02:06:20.397Z,1003.94
2016-07-16T02:07:20.388Z,1003.93
2016-07-16T02:08:20.392Z,1003.96
2016-07-16T02:09:20.395Z,1003.97
2016-07-16T02:10:20.400Z,1003.95
2016-07-16T02:11:20.407Z,1004
2016-07-16T02:12:20.408Z,1004.01
2016-07-16T02:13:20.411Z,1004.03
2016-07-16T02:14:20.419Z,1003.99
2016-07-16T02:15:20.415Z,1004.02
2016-07-16T02:16:20.429Z,1004
2016-07-16T02:17:20.425Z,1004.03
2016-07-16T02:18:20.429Z,1004.06
2016-07-16T02:19:20.433Z,1004.07
2016-07-16T02:20:20.639Z,1004.07
2016-07-16T02:21:20.641Z,1004.06
2016-07-16T02:22:20.444Z,1004.04
2016-07-16T02:23:20.452Z,1004.02
2016-07-16T02:24:20.449Z,1004.04
2016-07-16T02:25:20.453Z,1004.02
2016-07-16T02:26:20.461Z,1004.02
2016-07-16T02:27:20.667Z,1004.04
2016-07-16T02:28:20.470Z,1004.03
2016-07-16T02:29:20.486Z,1004
2016-07-16T02:30:20.474Z,1003.99
2016-07-16T02:32:20.485Z,1003.98
2016-07-16T02:33:20.499Z,1003.97
2016-07-16T02:34:20.686Z,1004
2016-07-16T02:35:20.503Z,1003.99
2016-07-16T02:36:20.493Z,1003.98
2016-07-16T02:37:20.510Z,1003.97
2016-07-16T02:38:20.526Z,1003.96
2016-07-16T02:39:20.503Z,1003.98
2016-07-16T02:40:20.518Z,1003.97
2016-07-16T02:41:20.508Z,1003.96
2016-07-16T02:42:20.721Z,1003.93
2016-07-16T02:43:20.514Z,1003.93
2016-07-16T02:44:20.573Z,1003.94
2016-07-16T02:45:20.529Z,1003.93
2016-07-16T02:46:20.535Z,1003.92
2016-07-16T02:47:20.531Z,1003.91
2016-07-16T02:48:20.543Z,1003.92
2016-07-16T02:49:20.535Z,1004.01
2016-07-16T02:50:20.542Z,1003.97
2016-07-16T02:51:20.546Z,1003.96
2016-07-16T02:52:20.545Z,1003.98
2016-07-16T02:53:20.551Z,1003.96
2016-07-16T02:54:20.756Z,1003.94
2016-07-16T02:55:20.560Z,1003.93
2016-07-16T02:56:20.570Z,1003.94
2016-07-16T02:57:20.565Z,1003.95
2016-07-16T02:58:20.567Z,1003.94
2016-07-16T02:59:20.570Z,1003.94
2016-07-16T03:00:20.573Z,1003.95
2016-07-16T03:01:20.585Z,1003.93
2016-07-16T03:02:20.580Z,1003.96
2016-07-16T03:03:20.593Z,1003.95
2016-07-16T03:04:20.597Z,1003.93
2016-07-16T03:05:20.590Z,1003.96
2016-07-16T03:06:20.593Z,1003.95
2016-07-16T03:07:20.595Z,1003.96
2016-07-16T03:08:20.805Z,1003.98
2016-07-16T03:09:20.603Z,1003.97
2016-07-16T03:10:20.610Z,1003.95
2016-07-16T03:11:20.610Z,1003.93
2016-07-16T03:12:20.611Z,1003.94
2016-07-16T03:13:20.616Z,1003.91
2016-07-16T03:14:20.621Z,1003.93
2016-07-16T03:15:20.623Z,1003.92
2016-07-16T03:16:20.627Z,1003.87
2016-07-16T03:17:20.638Z,1003.88
2016-07-16T03:18:20.630Z,1003.83
2016-07-16T03:19:20.635Z,1003.84
2016-07-16T03:20:20.636Z,1003.9
2016-07-16T03:21:20.638Z,1003.84
2016-07-16T03:22:20.656Z,1003.85
2016-07-16T03:23:20.660Z,1003.87
2016-07-16T03:24:20.651Z,1003.87
2016-07-16T03:25:20.653Z,1003.88
2016-07-16T03:26:20.654Z,1003.88
2016-07-16T03:27:20.658Z,1003.87
2016-07-16T03:28:20.663Z,1003.89
2016-07-16T03:29:20.689Z,1003.89
2016-07-16T03:30:20.674Z,1003.86
2016-07-16T03:31:20.682Z,1003.82
2016-07-16T03:32:20.692Z,1003.85
2016-07-16T03:33:20.682Z,1003.85
2016-07-16T03:34:20.678Z,1003.87
2016-07-16T03:35:20.688Z,1003.86
2016-07-16T03:36:20.686Z,1003.87
2016-07-16T03:37:20.689Z,1003.82
2016-07-16T03:38:20.692Z,1003.87
2016-07-16T03:39:20.718Z,1003.88
2016-07-16T03:40:20.696Z,1003.83
2016-07-16T03:41:20.701Z,1003.81
2016-07-16T03:42:20.704Z,1003.81
2016-07-16T03:43:20.711Z,1003.87
2016-07-16T03:44:20.764Z,1003.87
2016-07-16T03:45:20.733Z,1003.82
2016-07-16T03:46:20.740Z,1003.84
2016-07-16T03:47:20.727Z,1003.85
2016-07-16T03:48:20.725Z,1003.86
2016-07-16T03:49:20.730Z,1003.84
2016-07-16T03:50:20.731Z,1003.82
2016-07-16T03:51:20.739Z,1003.86
2016-07-16T03:52:20.740Z,1003.91
2016-07-16T03:53:20.941Z,1003.9
2016-07-16T03:54:20.745Z,1003.88
2016-07-16T03:55:20.749Z,1003.89
2016-07-16T03:56:20.759Z,1003.91
2016-07-16T03:57:20.755Z,1003.84
2016-07-16T03:58:20.765Z,1003.79
2016-07-16T03:59:20.765Z,1003.83
2016-07-16T04:00:20.772Z,1003.77
2016-07-16T04:01:20.780Z,1003.79
2016-07-16T04:02:20.976Z,1003.82
2016-07-16T04:03:20.978Z,1003.79
2016-07-16T04:05:20.790Z,1003.8
2016-07-16T04:06:20.789Z,1003.82
2016-07-16T04:07:20.792Z,1003.89
2016-07-16T04:08:20.796Z,1003.9
2016-07-16T04:09:20.801Z,1003.95
2016-07-16T04:10:20.813Z,1003.93
2016-07-16T04:11:20.808Z,1003.91
2016-07-16T04:12:20.813Z,1003.93
2016-07-16T04:13:20.812Z,1003.9
2016-07-16T04:14:20.818Z,1003.96
2016-07-16T04:15:20.824Z,1003.99
2016-07-16T04:16:20.833Z,1003.98
2016-07-16T04:17:20.836Z,1004.01
2016-07-16T04:18:20.849Z,1004.01
2016-07-16T04:19:20.847Z,1004.01
2016-07-16T04:20:20.874Z,1003.96
2016-07-16T04:21:20.866Z,1003.97
2016-07-16T04:22:20.854Z,1003.94
2016-07-16T04:23:20.856Z,1003.88
2016-07-16T04:24:20.861Z,1003.89
2016-07-16T04:25:20.865Z,1003.9
2016-07-16T04:26:20.867Z,1003.92
2016-07-16T04:27:20.872Z,1003.89
2016-07-16T04:28:20.878Z,1003.91
2016-07-16T04:29:20.889Z,1003.9
2016-07-16T04:30:20.893Z,1003.93
2016-07-16T04:31:20.888Z,1004.01
2016-07-16T04:32:20.910Z,1004.04
2016-07-16T04:33:20.918Z,1004.01
2016-07-16T04:34:21.108Z,1003.99
2016-07-16T04:35:20.938Z,1003.92
2016-07-16T04:36:20.919Z,1003.92
2016-07-16T04:37:20.920Z,1003.86
2016-07-16T04:38:20.919Z,1003.86
2016-07-16T04:39:20.938Z,1003.81
2016-07-16T04:40:20.928Z,1003.8
2016-07-16T04:41:21.140Z,1003.75
2016-07-16T04:42:20.946Z,1003.8
2016-07-16T04:43:20.941Z,1003.75
2016-07-16T04:44:20.943Z,1003.72
2016-07-16T04:45:20.949Z,1003.75
2016-07-16T04:46:20.955Z,1003.72
2016-07-16T04:47:20.958Z,1003.72
2016-07-16T04:48:20.965Z,1003.68
2016-07-16T04:49:20.967Z,1003.69
2016-07-16T04:50:20.973Z,1003.75
2016-07-16T04:51:20.983Z,1003.78
2016-07-16T04:52:20.992Z,1003.82
2016-07-16T04:53:20.990Z,1003.82
2016-07-16T04:54:21.004Z,1003.88
2016-07-16T04:55:21.032Z,1003.87
2016-07-16T04:56:21.025Z,1003.87
2016-07-16T04:57:21.010Z,1003.85
2016-07-16T04:58:21.013Z,1003.85
2016-07-16T04:59:21.018Z,1003.83
2016-07-16T05:00:21.026Z,1003.85
2016-07-16T05:01:21.033Z,1003.82
2016-07-16T05:02:21.039Z,1003.82
2016-07-16T05:03:21.060Z,1003.84
2016-07-16T05:04:21.060Z,1003.88
2016-07-16T05:05:21.049Z,1003.86
2016-07-16T05:06:21.051Z,1003.79
2016-07-16T05:07:21.082Z,1003.79
2016-07-16T05:08:21.057Z,1003.78
2016-07-16T05:09:21.071Z,1003.77
2016-07-16T05:10:21.069Z,1003.78
2016-07-16T05:11:21.281Z,1003.8
2016-07-16T05:12:21.083Z,1003.74
2016-07-16T05:13:21.086Z,1003.8
2016-07-16T05:14:21.086Z,1003.82
2016-07-16T05:15:21.319Z,1003.76
2016-07-16T05:16:21.124Z,1003.83
2016-07-16T05:17:21.103Z,1003.8
2016-07-16T05:18:21.109Z,1003.75
2016-07-16T05:19:21.114Z,1003.76
2016-07-16T05:21:21.124Z,1003.72
2016-07-16T05:22:21.130Z,1003.78
2016-07-16T05:23:21.135Z,1003.79
2016-07-16T05:24:21.143Z,1003.85
2016-07-16T05:25:21.145Z,1003.82
2016-07-16T05:26:21.150Z,1003.84
2016-07-16T05:27:21.158Z,1003.81
2016-07-16T05:28:21.369Z,1003.85
2016-07-16T05:29:21.172Z,1003.86
2016-07-16T05:30:21.185Z,1003.81
2016-07-16T05:31:21.185Z,1003.88
2016-07-16T05:32:21.181Z,1003.87
2016-07-16T05:33:21.196Z,1003.88
2016-07-16T05:34:21.218Z,1003.94
2016-07-16T05:35:21.215Z,1003.89
2016-07-16T05:36:21.404Z,1003.88
2016-07-16T05:37:21.210Z,1003.86
2016-07-16T05:38:21.234Z,1003.85
2016-07-16T05:39:21.245Z,1003.83
2016-07-16T05:40:21.227Z,1003.83
2016-07-16T05:41:21.233Z,1003.8
2016-07-16T05:42:21.241Z,1003.77
2016-07-16T05:43:21.251Z,1003.79
2016-07-16T05:44:21.251Z,1003.74
2016-07-16T05:45:21.255Z,1003.72
2016-07-16T05:46:21.266Z,1003.69
2016-07-16T05:47:21.692Z,1003.69
2016-07-16T05:50:21.282Z,1003.63
2016-07-16T05:51:21.321Z,1003.65
2016-07-16T05:52:21.295Z,1003.59
2016-07-16T05:53:21.299Z,1003.62
2016-07-16T05:54:21.307Z,1003.63
2016-07-16T05:55:21.317Z,1003.6
2016-07-16T05:56:21.317Z,1003.57
2016-07-16T05:57:21.320Z,1003.57
2016-07-16T05:58:21.327Z,1003.59
2016-07-16T05:59:21.332Z,1003.61
2016-07-16T06:00:21.366Z,1003.65
2016-07-16T06:01:21.347Z,1003.66
2016-07-16T06:02:21.664Z,1003.66
2016-07-16T06:03:21.358Z,1003.71
2016-07-16T06:04:21.364Z,1003.82
2016-07-16T06:05:21.368Z,1003.92
2016-07-16T06:06:21.387Z,1004.01
2016-07-16T06:07:21.379Z,1004.12
2016-07-16T06:08:21.385Z,1004.09
2016-07-16T06:09:21.393Z,1004.07
2016-07-16T06:10:21.398Z,1004.05
2016-07-16T06:11:21.403Z,1003.99
2016-07-16T06:12:21.578Z,1004
2016-07-16T06:13:21.417Z,1004
2016-07-16T06:14:21.423Z,1004.05
2016-07-16T06:15:21.451Z,1004.05
2016-07-16T06:16:21.448Z,1004.04
2016-07-16T06:17:21.449Z,1003.98
2016-07-16T06:18:21.450Z,1003.96
2016-07-16T06:19:21.458Z,1003.96
2016-07-16T06:20:21.463Z,1003.93
2016-07-16T06:21:21.637Z,1003.94
2016-07-16T06:22:21.479Z,1003.92
2016-07-16T06:23:21.486Z,1003.94
2016-07-16T06:24:21.492Z,1004
2016-07-16T06:25:21.498Z,1004.03
2016-07-16T06:26:21.516Z,1003.98
2016-07-16T06:27:22.132Z,1003.98
2016-07-16T06:28:21.526Z,1003.99
2016-07-16T06:29:21.528Z,1003.91
2016-07-16T06:31:21.952Z,1003.82
2016-07-16T06:32:21.553Z,1003.84
2016-07-16T06:33:21.561Z,1003.78
2016-07-16T06:34:21.570Z,1003.72
2016-07-16T06:35:21.589Z,1003.77
2016-07-16T06:36:21.586Z,1003.83
2016-07-16T06:37:21.594Z,1003.91
2016-07-16T06:38:21.604Z,1003.9
2016-07-16T06:39:21.619Z,1003.86
2016-07-16T06:40:21.618Z,1003.83
2016-07-16T06:41:21.629Z,1003.81
2016-07-16T06:42:21.637Z,1003.87
2016-07-16T06:43:21.646Z,1003.83
2016-07-16T06:44:21.699Z,1003.78
2016-07-16T06:45:21.702Z,1003.69
2016-07-16T06:46:21.666Z,1003.68
2016-07-16T06:47:21.676Z,1003.78
2016-07-16T06:49:21.693Z,1003.77
2016-07-16T06:50:21.701Z,1003.76
2016-07-16T06:51:21.739Z,1003.76
2016-07-16T06:52:21.720Z,1003.68
2016-07-16T06:53:21.741Z,1003.7
2016-07-16T06:54:21.733Z,1003.72
2016-07-16T06:55:21.745Z,1003.71
2016-07-16T06:56:21.750Z,1003.72
2016-07-16T06:57:21.758Z,1003.75
2016-07-16T06:58:21.776Z,1003.73
2016-07-16T06:59:21.774Z,1003.74
2016-07-16T07:00:21.783Z,1003.73
2016-07-16T07:01:21.912Z,1003.73
2016-07-16T07:02:21.799Z,1003.7
2016-07-16T07:03:21.809Z,1003.69
2016-07-16T07:04:21.813Z,1003.81
2016-07-16T07:05:21.822Z,1003.9
2016-07-16T07:06:21.857Z,1003.82
2016-07-16T07:07:21.840Z,1003.84
2016-07-16T07:08:21.847Z,1003.89
2016-07-16T07:09:21.882Z,1003.99
2016-07-16T07:11:21.901Z,1004.06
2016-07-16T07:12:21.881Z,1004.08
2016-07-16T07:13:21.890Z,1004.1
2016-07-16T07:14:21.919Z,1004.07
2016-07-16T07:15:21.923Z,1004.08
2016-07-16T07:16:21.923Z,1004.09
2016-07-16T07:17:21.924Z,1004.08
2016-07-16T07:18:21.934Z,1004.1
2016-07-16T07:20:21.957Z,1004.11
2016-07-16T07:21:21.962Z,1004.13
2016-07-16T07:22:22.010Z,1004.18
2016-07-16T07:23:21.984Z,1004.23
2016-07-16T07:24:21.990Z,1004.28
2016-07-16T07:25:22.000Z,1004.25
2016-07-16T07:26:22.010Z,1004.22
2016-07-16T07:27:22.019Z,1004.17
2016-07-16T07:28:22.026Z,1004.09
2016-07-16T07:29:22.038Z,1004.07
2016-07-16T07:30:22.048Z,1004.15
2016-07-16T07:31:22.057Z,1004.09
2016-07-16T07:32:22.066Z,1004.06
2016-07-16T07:33:22.103Z,1004.06
2016-07-16T07:34:22.096Z,1004.08
2016-07-16T07:35:22.098Z,1004.12
2016-07-16T07:36:22.104Z,1004.08
2016-07-16T07:37:22.119Z,1004.2
2016-07-16T07:38:22.365Z,1004.24
2016-07-16T07:39:22.154Z,1004.3
2016-07-16T07:40:22.158Z,1004.3
2016-07-16T07:41:22.157Z,1004.27
2016-07-16T07:42:22.400Z,1004.28
2016-07-16T07:43:22.178Z,1004.28
2016-07-16T07:44:22.184Z,1004.25
2016-07-16T07:45:22.195Z,1004.18
2016-07-16T07:47:22.216Z,1004.07
2016-07-16T07:48:22.478Z,1004.05
2016-07-16T07:49:22.237Z,1004.04
2016-07-16T07:50:22.254Z,1004.16
2016-07-16T07:51:22.257Z,1004.19
2016-07-16T07:52:22.268Z,1004.15
2016-07-16T07:53:22.280Z,1004.06
2016-07-16T07:54:22.307Z,1004.06
2016-07-16T07:55:22.312Z,1004.12
2016-07-16T07:56:22.314Z,1004.15
2016-07-16T07:57:22.323Z,1004.15
2016-07-16T07:58:22.331Z,1004.21
2016-07-16T07:59:22.340Z,1004.1
2016-07-16T08:00:22.359Z,1004.07
2016-07-16T08:01:22.591Z,1004.01
2016-07-16T08:02:22.372Z,1003.99
2016-07-16T08:03:22.393Z,1004.02
2016-07-16T08:04:22.399Z,1004.04
2016-07-16T08:05:22.402Z,1004.06
2016-07-16T08:06:22.413Z,1004.12
2016-07-16T08:07:22.514Z,1004.02
2016-07-16T08:08:22.638Z,1003.96
2016-07-16T08:09:22.467Z,1003.89
2016-07-16T08:10:22.481Z,1003.88
2016-07-16T08:11:22.486Z,1003.87
2016-07-16T08:12:22.476Z,1003.86
2016-07-16T08:13:22.569Z,1003.87
2016-07-16T08:14:22.495Z,1003.82
2016-07-16T08:15:22.505Z,1003.8
2016-07-16T08:16:22.515Z,1003.77
2016-07-16T08:17:22.534Z,1003.77
2016-07-16T08:18:22.711Z,1003.75
2016-07-16T08:19:22.548Z,1003.8
2016-07-16T08:20:22.558Z,1003.73
2016-07-16T08:21:22.568Z,1003.74
2016-07-16T08:22:22.595Z,1003.75
2016-07-16T08:23:22.593Z,1003.73
2016-07-16T08:24:22.597Z,1003.68
2016-07-16T08:25:22.611Z,1003.75
2016-07-16T08:26:22.620Z,1003.76
2016-07-16T08:27:22.629Z,1003.76
2016-07-16T08:28:22.635Z,1003.76
2016-07-16T08:29:22.651Z,1003.77
2016-07-16T08:30:22.656Z,1003.8
2016-07-16T08:31:22.667Z,1003.79
2016-07-16T08:32:22.678Z,1003.81
2016-07-16T08:33:22.687Z,1003.8
2016-07-16T08:34:22.698Z,1003.81
2016-07-16T08:35:22.706Z,1003.79
2016-07-16T08:36:22.717Z,1003.76
2016-07-16T08:37:22.728Z,1003.78
2016-07-16T08:38:22.762Z,1003.79
2016-07-16T08:39:22.756Z,1003.76
2016-07-16T08:40:22.757Z,1003.79
2016-07-16T08:41:22.778Z,1003.73
2016-07-16T08:42:22.979Z,1003.71
2016-07-16T08:43:22.789Z,1003.77
2016-07-16T08:44:22.798Z,1003.76
2016-07-16T08:45:22.806Z,1003.74
2016-07-16T08:46:22.818Z,1003.75
2016-07-16T08:47:22.827Z,1003.76
2016-07-16T08:48:22.843Z,1003.74
2016-07-16T08:49:22.849Z,1003.69
2016-07-16T08:50:22.863Z,1003.67
2016-07-16T08:51:22.868Z,1003.64
2016-07-16T08:52:22.892Z,1003.61
2016-07-16T08:53:22.889Z,1003.63
2016-07-16T08:54:22.898Z,1003.6
2016-07-16T08:55:22.910Z,1003.63
2016-07-16T08:56:22.929Z,1003.71
2016-07-16T08:57:22.953Z,1003.75
2016-07-16T08:58:22.943Z,1003.88
2016-07-16T08:59:22.949Z,1003.85
2016-07-16T09:00:22.961Z,1003.76
2016-07-16T09:01:23.183Z,1003.67
2016-07-16T09:02:23.022Z,1003.65
2016-07-16T09:03:22.992Z,1003.62
2016-07-16T09:04:23.005Z,1003.56
2016-07-16T09:05:23.014Z,1003.59
2016-07-16T09:06:23.029Z,1003.59
2016-07-16T09:07:23.043Z,1003.53
2016-07-16T09:08:23.046Z,1003.55
2016-07-16T09:09:23.069Z,1003.6
2016-07-16T09:10:23.270Z,1003.57
2016-07-16T09:11:23.080Z,1003.54
2016-07-16T09:12:23.091Z,1003.57
2016-07-16T09:13:23.099Z,1003.64
2016-07-16T09:14:23.111Z,1003.75
2016-07-16T09:15:23.120Z,1003.86
2016-07-16T09:16:23.357Z,1003.89
2016-07-16T09:17:23.349Z,1003.89
2016-07-16T09:18:23.159Z,1003.88
2016-07-16T09:19:23.167Z,1003.85
2016-07-16T09:20:23.178Z,1003.65
2016-07-16T09:22:23.403Z,1003.48
2016-07-16T09:23:23.221Z,1003.53
2016-07-16T09:24:23.229Z,1003.56
2016-07-16T09:25:23.236Z,1003.64
2016-07-16T09:26:23.246Z,1003.69
2016-07-16T09:27:23.274Z,1003.74
2016-07-16T09:28:23.272Z,1003.79
2016-07-16T09:29:23.283Z,1003.71
2016-07-16T09:30:23.495Z,1003.71
2016-07-16T09:31:23.299Z,1003.7
2016-07-16T09:32:23.312Z,1003.62
2016-07-16T09:33:23.852Z,1003.57
2016-07-16T09:34:23.337Z,1003.49
2016-07-16T09:35:23.347Z,1003.42
2016-07-16T09:36:23.965Z,1003.41
2016-07-16T09:37:23.370Z,1003.34
2016-07-16T09:38:23.381Z,1003.36
2016-07-16T09:39:23.797Z,1003.38
2016-07-16T09:40:23.404Z,1003.35
2016-07-16T09:41:23.417Z,1003.32
2016-07-16T09:42:23.471Z,1003.35
2016-07-16T09:43:23.437Z,1003.33
2016-07-16T09:44:23.502Z,1003.29
2016-07-16T09:45:23.461Z,1003.27
2016-07-16T09:46:23.520Z,1003.29
2016-07-16T09:47:23.685Z,1003.23
2016-07-16T09:49:23.511Z,1003.3
2016-07-16T09:50:23.545Z,1003.29
2016-07-16T09:51:23.534Z,1003.19
2016-07-16T09:52:23.547Z,1003.28
2016-07-16T09:53:23.570Z,1003.39
2016-07-16T09:54:23.571Z,1003.44
2016-07-16T09:55:23.578Z,1003.38
2016-07-16T09:56:23.591Z,1003.32
2016-07-16T09:57:23.601Z,1003.2
2016-07-16T09:58:23.987Z,1003.22
2016-07-16T09:59:23.703Z,1003.18
2016-07-16T10:00:23.826Z,1003.23
2016-07-16T10:01:23.704Z,1003.21
2016-07-16T10:02:23.842Z,1003.24
2016-07-16T10:04:23.754Z,1003.33
2016-07-16T10:05:23.684Z,1003.34
2016-07-16T10:06:23.703Z,1003.31
2016-07-16T10:07:23.732Z,1003.24
2016-07-16T10:08:23.723Z,1003.22
2016-07-16T10:09:23.731Z,1003.15
2016-07-16T10:10:23.962Z,1003.13
2016-07-16T10:11:23.756Z,1003.07
2016-07-16T10:12:23.830Z,1003.03
2016-07-16T10:13:23.795Z,1003.07
2016-07-16T10:14:23.790Z,1002.99
2016-07-16T10:15:23.803Z,1002.98
2016-07-16T10:16:23.816Z,1003.06
2016-07-16T10:17:23.828Z,1002.98
2016-07-16T10:18:23.840Z,1003.02
2016-07-16T10:19:23.849Z,1002.98
2016-07-16T10:20:23.857Z,1002.93
2016-07-16T10:21:23.871Z,1002.94
2016-07-16T10:22:23.880Z,1002.96
2016-07-16T10:23:23.894Z,1002.91
2016-07-16T10:24:23.910Z,1002.98
2016-07-16T10:25:23.917Z,1002.96
